createdAt,value
2019-03-15T00:00:19.857Z,5.30
2019-03-15T00:02:46.656Z,5.20
2019-03-15T00:05:13.512Z,5.20
2019-03-15T00:07:41.282Z,5.20
2019-03-15T00:10:08.308Z,5.20
2019-03-15T00:12:35.257Z,5.10
2019-03-15T00:15:02.788Z,5.10
2019-03-15T00:19:56.682Z,5.00
2019-03-15T00:22:23.676Z,5.10
2019-03-15T00:24:50.420Z,5.20
2019-03-15T00:27:17.348Z,5.10
2019-03-15T00:29:44.181Z,5.00
2019-03-15T00:32:13.497Z,5.10
2019-03-15T00:34:40.368Z,5.00
2019-03-15T00:37:07.118Z,5.00
2019-03-15T00:39:33.853Z,5.10
2019-03-15T00:42:00.618Z,5.10
2019-03-15T00:44:27.477Z,5.10
2019-03-15T00:46:54.233Z,5.10
2019-03-15T00:49:21.613Z,5.20
2019-03-15T00:51:48.838Z,5.20
2019-03-15T00:54:15.644Z,5.40
2019-03-15T00:56:42.410Z,5.20
2019-03-15T00:59:09.193Z,5.10
2019-03-15T01:01:35.945Z,5.00
2019-03-15T01:04:02.717Z,4.90
2019-03-15T01:06:29.776Z,4.90
2019-03-15T01:08:56.608Z,4.90
2019-03-15T01:11:23.393Z,4.80
2019-03-15T01:13:50.132Z,4.70
2019-03-15T01:16:16.869Z,4.70
2019-03-15T01:21:11.766Z,4.70
2019-03-15T01:23:39.001Z,4.70
2019-03-15T01:26:05.773Z,4.70
2019-03-15T01:28:32.616Z,4.70
2019-03-15T01:30:59.353Z,4.80
2019-03-15T01:33:26.405Z,4.80
2019-03-15T01:35:53.248Z,4.80
2019-03-15T01:38:19.985Z,4.90
2019-03-15T01:40:48.832Z,4.80
2019-03-15T01:43:15.402Z,4.70
2019-03-15T01:45:42.157Z,4.80
2019-03-15T01:48:08.934Z,4.70
2019-03-15T01:50:35.882Z,4.70
2019-03-15T01:53:02.718Z,4.70
2019-03-15T01:55:29.578Z,4.60
2019-03-15T01:57:56.582Z,4.70
2019-03-15T02:00:23.328Z,4.70
2019-03-15T02:02:50.318Z,4.60
2019-03-15T02:05:17.162Z,4.70
2019-03-15T02:07:44.072Z,4.60
2019-03-15T02:10:11.088Z,4.70
2019-03-15T02:12:38.108Z,4.60
2019-03-15T02:15:05.793Z,4.60
2019-03-15T02:17:32.805Z,4.50
2019-03-15T02:19:59.564Z,4.50
2019-03-15T02:22:26.336Z,4.50
2019-03-15T02:24:53.341Z,4.50
2019-03-15T02:27:20.080Z,4.60
2019-03-15T02:29:46.853Z,4.60
2019-03-15T02:32:13.608Z,4.60
2019-03-15T02:34:40.352Z,4.50
2019-03-15T02:37:07.267Z,4.50
2019-03-15T02:39:34.058Z,4.60
2019-03-15T02:42:01.204Z,4.70
2019-03-15T02:44:27.946Z,4.70
2019-03-15T02:46:55.278Z,4.70
2019-03-15T02:49:22.186Z,4.70
2019-03-15T02:51:49.948Z,4.80
2019-03-15T02:54:16.987Z,4.80
2019-03-15T02:56:43.741Z,4.90
2019-03-15T02:59:10.728Z,5.00
2019-03-15T03:01:37.480Z,5.00
2019-03-15T03:04:04.322Z,5.10
2019-03-15T03:06:31.079Z,5.10
2019-03-15T03:08:57.828Z,5.10
2019-03-15T03:11:24.922Z,5.10
2019-03-15T03:13:51.779Z,5.20
2019-03-15T03:16:19.323Z,5.30
2019-03-15T03:18:46.370Z,5.30
2019-03-15T03:21:13.269Z,5.20
2019-03-15T03:26:07.431Z,5.50
2019-03-15T03:28:34.446Z,5.50
2019-03-15T03:31:01.431Z,5.60
2019-03-15T03:33:28.417Z,5.50
2019-03-15T03:38:22.171Z,5.60
2019-03-15T03:40:48.998Z,5.60
2019-03-15T03:43:15.744Z,5.60
2019-03-15T03:45:42.575Z,5.50
2019-03-15T03:48:09.685Z,5.50
2019-03-15T03:50:36.522Z,5.60
2019-03-15T03:53:03.378Z,5.70
2019-03-15T03:55:30.122Z,5.70
2019-03-15T03:57:56.991Z,5.70
2019-03-15T04:00:24.232Z,5.60
2019-03-15T04:02:53.212Z,5.60
2019-03-15T04:05:20.646Z,5.60
2019-03-15T04:07:47.760Z,5.60
2019-03-15T04:10:14.840Z,5.60
2019-03-15T04:12:42.764Z,5.50
2019-03-15T04:15:10.109Z,5.60
2019-03-15T04:17:37.122Z,5.60
2019-03-15T04:20:04.342Z,5.60
2019-03-15T04:22:31.403Z,5.50
2019-03-15T04:24:58.152Z,5.60
2019-03-15T04:27:25.041Z,5.60
2019-03-15T04:29:51.801Z,5.60
2019-03-15T04:32:18.579Z,5.60
2019-03-15T04:34:45.321Z,5.50
2019-03-15T04:37:12.321Z,5.40
2019-03-15T04:39:39.069Z,5.50
2019-03-15T04:42:05.810Z,5.60
2019-03-15T04:44:32.569Z,5.60
2019-03-15T04:46:59.322Z,5.60
2019-03-15T04:49:26.093Z,5.70
2019-03-15T04:51:52.931Z,5.70
2019-03-15T04:54:20.025Z,5.70
2019-03-15T04:56:48.161Z,5.70
2019-03-15T04:59:15.771Z,5.60
2019-03-15T05:01:42.628Z,5.60
2019-03-15T05:04:09.724Z,5.50
2019-03-15T05:06:36.494Z,5.50
2019-03-15T05:09:05.304Z,5.50
2019-03-15T05:11:32.122Z,5.40
2019-03-15T05:13:59.305Z,5.40
2019-03-15T05:16:26.077Z,5.40
2019-03-15T05:18:53.408Z,5.40
2019-03-15T05:21:20.451Z,5.60
2019-03-15T05:23:47.192Z,5.60
2019-03-15T05:26:13.931Z,5.50
2019-03-15T05:28:40.998Z,5.60
2019-03-15T05:31:07.749Z,5.60
2019-03-15T05:33:34.910Z,5.60
2019-03-15T05:36:01.787Z,5.50
2019-03-15T05:38:28.849Z,5.60
2019-03-15T05:40:55.885Z,5.60
2019-03-15T05:43:22.634Z,5.70
2019-03-15T05:45:49.388Z,5.70
2019-03-15T05:48:16.483Z,5.60
2019-03-15T05:50:43.485Z,5.70
2019-03-15T05:53:10.601Z,5.70
2019-03-15T05:55:37.349Z,5.70
2019-03-15T05:58:04.546Z,5.80
2019-03-15T06:00:31.552Z,5.70
2019-03-15T06:02:58.338Z,5.80
2019-03-15T06:05:25.485Z,5.80
2019-03-15T06:07:52.325Z,5.90
2019-03-15T06:10:19.090Z,5.90
2019-03-15T06:12:46.101Z,6.00
2019-03-15T06:15:13.321Z,6.00
2019-03-15T06:17:40.326Z,5.90
2019-03-15T06:20:07.654Z,6.00
2019-03-15T06:22:34.524Z,6.00
2019-03-15T06:25:01.631Z,6.00
2019-03-15T06:27:31.069Z,6.10
2019-03-15T06:29:57.268Z,6.10
2019-03-15T06:32:24.288Z,6.10
2019-03-15T06:34:51.161Z,6.10
2019-03-15T06:37:18.149Z,6.20
2019-03-15T06:39:44.900Z,6.20
2019-03-15T06:42:11.674Z,6.20
2019-03-15T06:44:38.440Z,6.30
2019-03-15T06:47:05.434Z,6.30
2019-03-15T06:49:32.196Z,6.40
2019-03-15T06:51:58.949Z,6.40
2019-03-15T06:54:26.130Z,6.40
2019-03-15T06:59:20.581Z,7.30
2019-03-15T07:01:47.393Z,6.50
2019-03-15T07:04:14.137Z,6.50
2019-03-15T07:06:41.158Z,6.50
2019-03-15T07:09:08.070Z,6.50
2019-03-15T07:11:34.829Z,6.60
2019-03-15T07:14:01.565Z,6.60
2019-03-15T07:16:28.389Z,6.60
2019-03-15T07:18:55.497Z,6.60
2019-03-15T07:21:22.851Z,6.50
2019-03-15T07:23:49.937Z,6.60
2019-03-15T07:26:16.717Z,6.70
2019-03-15T07:28:43.501Z,6.70
2019-03-15T07:31:10.254Z,6.60
2019-03-15T07:33:37.190Z,6.50
2019-03-15T07:36:04.046Z,6.50
2019-03-15T07:38:31.053Z,6.60
2019-03-15T07:40:57.837Z,6.50
2019-03-15T07:43:24.572Z,7.50
2019-03-15T07:45:51.355Z,6.70
2019-03-15T07:48:22.850Z,6.60
2019-03-15T07:50:49.782Z,6.60
2019-03-15T07:53:17.068Z,6.60
2019-03-15T07:55:43.825Z,6.60
2019-03-15T07:58:10.825Z,6.50
2019-03-15T08:00:37.665Z,6.40
2019-03-15T08:05:31.413Z,6.40
2019-03-15T08:07:58.154Z,6.40
2019-03-15T08:10:25.192Z,6.30
2019-03-15T08:12:51.933Z,6.40
2019-03-15T08:15:18.925Z,6.40
2019-03-15T08:17:45.772Z,6.40
2019-03-15T08:20:12.814Z,6.40
2019-03-15T08:22:39.606Z,6.30
2019-03-15T08:25:07.430Z,6.30
2019-03-15T08:27:34.182Z,6.30
2019-03-15T08:30:00.949Z,6.30
2019-03-15T08:32:27.689Z,6.30
2019-03-15T08:34:54.432Z,6.40
2019-03-15T08:37:21.430Z,6.50
2019-03-15T08:39:48.169Z,6.50
2019-03-15T08:42:14.980Z,6.20
2019-03-15T08:44:41.797Z,6.30
2019-03-15T08:47:08.589Z,6.10
2019-03-15T08:49:35.321Z,6.30
2019-03-15T08:52:04.130Z,6.40
2019-03-15T08:54:31.346Z,6.60
2019-03-15T08:56:58.093Z,6.60
2019-03-15T08:59:25.179Z,6.70
2019-03-15T09:01:52.447Z,6.70
2019-03-15T09:04:21.621Z,6.70
2019-03-15T09:06:48.189Z,6.70
2019-03-15T09:09:14.946Z,6.70
2019-03-15T09:11:41.692Z,6.70
2019-03-15T09:14:08.463Z,6.70
2019-03-15T09:16:35.350Z,6.70
2019-03-15T09:19:02.187Z,6.80
2019-03-15T09:21:29.134Z,6.80
2019-03-15T09:23:56.121Z,6.60
2019-03-15T09:26:22.887Z,6.70
2019-03-15T09:28:49.869Z,6.60
2019-03-15T09:31:16.637Z,6.60
2019-03-15T09:33:43.474Z,6.50
2019-03-15T09:36:10.224Z,6.50
2019-03-15T09:38:37.480Z,6.40
2019-03-15T09:41:04.329Z,6.30
2019-03-15T09:43:31.305Z,6.30
2019-03-15T09:45:58.045Z,6.30
2019-03-15T09:48:24.856Z,6.00
2019-03-15T09:50:51.978Z,5.90
2019-03-15T09:53:18.845Z,5.90
2019-03-15T09:55:45.590Z,5.70
2019-03-15T09:58:12.454Z,5.70
2019-03-15T10:00:39.448Z,5.70
2019-03-15T10:03:06.181Z,5.70
2019-03-15T10:05:32.938Z,5.70
2019-03-15T10:07:59.689Z,5.80
2019-03-15T10:10:26.464Z,5.90
2019-03-15T10:13:04.949Z,5.90
2019-03-15T10:15:21.947Z,5.90
2019-03-15T10:17:48.808Z,5.90
2019-03-15T10:20:15.747Z,5.90
2019-03-15T10:22:42.613Z,5.90
2019-03-15T10:25:09.722Z,5.90
2019-03-15T10:27:36.745Z,5.90
2019-03-15T10:30:04.246Z,6.00
2019-03-15T10:32:30.993Z,5.90
2019-03-15T10:34:57.745Z,6.00
2019-03-15T10:37:24.486Z,6.10
2019-03-15T10:39:51.220Z,6.20
2019-03-15T10:42:18.198Z,6.20
2019-03-15T10:44:44.934Z,6.20
2019-03-15T10:47:11.685Z,6.30
2019-03-15T10:49:38.437Z,6.30
2019-03-15T10:52:05.233Z,6.20
2019-03-15T10:54:32.041Z,6.20
2019-03-15T10:56:58.987Z,6.30
2019-03-15T10:59:25.741Z,6.30
2019-03-15T11:01:52.504Z,6.60
2019-03-15T11:04:19.328Z,6.60
2019-03-15T11:06:46.225Z,6.70
2019-03-15T11:09:13.239Z,6.60
2019-03-15T11:11:39.985Z,6.70
2019-03-15T11:14:06.997Z,6.70
2019-03-15T11:16:34.044Z,6.40
2019-03-15T11:19:00.797Z,6.60
2019-03-15T11:21:27.553Z,6.70
2019-03-15T11:23:54.325Z,6.50
2019-03-15T11:26:21.076Z,6.60
2019-03-15T11:28:47.889Z,6.60
2019-03-15T11:31:14.703Z,6.60
2019-03-15T11:33:41.462Z,6.60
2019-03-15T11:36:08.203Z,6.70
2019-03-15T11:38:34.974Z,6.70
2019-03-15T11:41:01.713Z,6.70
2019-03-15T11:43:28.569Z,6.70
2019-03-15T11:45:55.326Z,6.40
2019-03-15T11:48:22.144Z,6.80
2019-03-15T11:50:48.979Z,6.90
2019-03-15T11:53:18.805Z,6.70
2019-03-15T11:55:44.983Z,6.90
2019-03-15T11:58:11.752Z,6.90
2019-03-15T12:00:38.598Z,7.00
2019-03-15T12:03:05.349Z,7.10
2019-03-15T12:05:32.190Z,7.10
2019-03-15T12:07:58.983Z,7.20
2019-03-15T12:10:25.849Z,7.10
2019-03-15T12:12:52.868Z,7.20
2019-03-15T12:15:19.727Z,7.30
2019-03-15T12:17:46.662Z,7.30
2019-03-15T12:20:13.617Z,7.20
2019-03-15T12:22:40.497Z,7.30
2019-03-15T12:25:07.487Z,7.40
2019-03-15T12:27:34.590Z,7.30
2019-03-15T12:30:01.579Z,7.30
2019-03-15T12:32:28.378Z,7.40
2019-03-15T12:34:55.394Z,7.50
2019-03-15T12:37:22.632Z,7.50
2019-03-15T12:39:49.408Z,7.50
2019-03-15T12:42:16.453Z,7.60
2019-03-15T12:44:43.220Z,7.70
2019-03-15T12:47:10.069Z,7.70
2019-03-15T12:49:37.013Z,7.80
2019-03-15T12:52:03.990Z,7.90
2019-03-15T12:54:30.989Z,7.90
2019-03-15T12:56:58.294Z,8.00
2019-03-15T12:59:25.072Z,8.00
2019-03-15T13:01:51.874Z,8.10
2019-03-15T13:04:18.990Z,8.10
2019-03-15T13:06:45.969Z,8.20
2019-03-15T13:09:12.717Z,8.30
2019-03-15T13:11:39.608Z,8.40
2019-03-15T13:14:06.607Z,8.40
2019-03-15T13:16:33.352Z,8.50
2019-03-15T13:19:00.181Z,8.50
2019-03-15T13:21:26.933Z,8.60
2019-03-15T13:23:53.696Z,8.70
2019-03-15T13:26:20.777Z,8.70
2019-03-15T13:28:47.534Z,8.80
2019-03-15T13:31:14.533Z,8.90
2019-03-15T13:33:41.281Z,9.00
2019-03-15T13:36:08.267Z,9.10
2019-03-15T13:38:35.026Z,9.20
2019-03-15T13:41:01.797Z,9.30
2019-03-15T13:43:28.796Z,9.50
2019-03-15T13:45:55.581Z,9.60
2019-03-15T13:48:22.321Z,9.70
2019-03-15T13:50:49.098Z,9.80
2019-03-15T13:53:15.869Z,9.80
2019-03-15T13:55:42.613Z,9.90
2019-03-15T13:58:09.353Z,10.00
2019-03-15T14:00:36.402Z,10.10
2019-03-15T14:03:03.236Z,10.10
2019-03-15T14:05:29.984Z,10.20
2019-03-15T14:07:56.821Z,10.20
2019-03-15T14:10:23.675Z,10.20
2019-03-15T14:12:50.467Z,10.30
2019-03-15T14:15:17.451Z,10.30
2019-03-15T14:17:44.277Z,10.20
2019-03-15T14:20:11.272Z,10.20
2019-03-15T14:22:38.006Z,10.20
2019-03-15T14:25:05.518Z,10.20
2019-03-15T14:27:37.457Z,10.20
2019-03-15T14:30:00.986Z,10.20
2019-03-15T14:32:27.977Z,10.20
2019-03-15T14:34:54.729Z,10.30
2019-03-15T14:37:21.578Z,10.30
2019-03-15T14:39:48.645Z,10.40
2019-03-15T14:42:15.516Z,10.40
2019-03-15T14:44:42.551Z,10.40
2019-03-15T14:47:09.430Z,10.50
2019-03-15T14:49:38.205Z,10.50
2019-03-15T14:52:04.944Z,10.50
2019-03-15T14:54:31.941Z,10.50
2019-03-15T14:56:59.201Z,10.50
2019-03-15T14:59:25.974Z,10.50
2019-03-15T15:01:52.955Z,10.50
2019-03-15T15:04:19.813Z,10.50
2019-03-15T15:06:46.569Z,10.50
2019-03-15T15:09:13.341Z,10.50
2019-03-15T15:11:40.092Z,10.50
2019-03-15T15:14:06.838Z,10.60
2019-03-15T15:16:33.841Z,10.60
2019-03-15T15:19:00.623Z,10.60
2019-03-15T15:21:27.497Z,10.60
2019-03-15T15:23:54.262Z,10.70
2019-03-15T15:26:21.111Z,10.70
2019-03-15T15:28:48.111Z,10.70
2019-03-15T15:31:15.239Z,10.70
2019-03-15T15:33:41.980Z,10.70
2019-03-15T15:36:08.829Z,10.70
2019-03-15T15:38:35.588Z,10.60
2019-03-15T15:41:02.536Z,10.60
2019-03-15T15:43:29.401Z,10.50
2019-03-15T15:45:56.153Z,10.40
2019-03-15T15:48:22.946Z,10.40
2019-03-15T15:53:16.813Z,10.30
2019-03-15T15:55:44.086Z,10.40
2019-03-15T15:58:17.822Z,10.40
2019-03-15T16:00:40.306Z,10.40
2019-03-15T16:05:33.964Z,10.40
2019-03-15T16:08:02.905Z,10.70
2019-03-15T16:10:29.661Z,10.40
2019-03-15T16:12:56.654Z,10.40
2019-03-15T16:15:23.765Z,10.50
2019-03-15T16:17:50.521Z,10.60
2019-03-15T16:20:17.385Z,10.60
2019-03-15T16:25:11.487Z,10.50
2019-03-15T16:27:38.341Z,10.50
2019-03-15T16:30:06.740Z,10.40
2019-03-15T16:32:33.480Z,10.40
2019-03-15T16:35:00.666Z,10.40
2019-03-15T16:37:27.450Z,10.30
2019-03-15T16:39:56.480Z,10.20
2019-03-15T16:42:22.849Z,10.10
2019-03-15T16:44:50.366Z,10.10
2019-03-15T16:47:17.105Z,10.20
2019-03-15T16:49:44.092Z,10.20
2019-03-15T16:52:10.857Z,10.10
2019-03-15T16:54:37.602Z,10.20
2019-03-15T16:57:04.678Z,10.20
2019-03-15T16:59:31.412Z,10.20
2019-03-15T17:01:58.211Z,10.20
2019-03-15T17:04:25.032Z,10.20
2019-03-15T17:06:52.080Z,10.20
2019-03-15T17:09:19.230Z,10.20
2019-03-15T17:11:46.008Z,10.20
2019-03-15T17:14:25.036Z,10.30
2019-03-15T17:16:41.393Z,10.30
2019-03-15T17:19:08.132Z,10.30
2019-03-15T17:24:01.777Z,10.40
2019-03-15T17:26:28.533Z,10.40
2019-03-15T17:28:58.855Z,10.30
2019-03-15T17:31:23.913Z,10.40
2019-03-15T17:33:50.645Z,10.40
2019-03-15T17:36:17.417Z,10.30
2019-03-15T17:41:11.280Z,10.30
2019-03-15T17:43:38.029Z,10.30
2019-03-15T17:46:04.900Z,10.30
2019-03-15T17:48:31.732Z,10.30
2019-03-15T17:53:26.030Z,10.40
2019-03-15T17:55:54.629Z,10.40
2019-03-15T17:58:21.577Z,10.30
2019-03-15T18:00:48.747Z,10.30
2019-03-15T18:03:21.221Z,10.40
2019-03-15T18:05:44.706Z,10.40
2019-03-15T18:08:11.554Z,10.40
2019-03-15T18:20:27.434Z,10.50
2019-03-15T18:32:44.733Z,10.30
2019-03-15T18:35:11.969Z,10.40
2019-03-15T18:37:39.086Z,10.50
2019-03-15T18:40:07.609Z,10.40
2019-03-15T18:42:34.430Z,10.50
2019-03-15T18:45:01.440Z,10.60
2019-03-15T18:47:28.292Z,10.50
2019-03-15T18:49:55.273Z,10.50
2019-03-15T18:52:22.021Z,10.60
2019-03-15T18:54:48.766Z,10.60
2019-03-15T18:57:15.521Z,10.50
2019-03-15T18:59:42.504Z,10.60
2019-03-15T19:02:09.361Z,10.60
2019-03-15T19:04:36.204Z,10.60
2019-03-15T19:07:03.255Z,10.60
2019-03-15T19:09:30.017Z,10.60
2019-03-15T19:11:56.768Z,10.60
2019-03-15T19:34:00.545Z,10.60
2019-03-15T19:36:27.634Z,10.50
2019-03-15T19:38:54.380Z,10.60
2019-03-15T19:41:21.124Z,10.50
2019-03-15T19:43:48.030Z,10.50
2019-03-15T19:46:14.927Z,10.50
2019-03-15T19:48:42.304Z,10.60
2019-03-15T19:51:09.230Z,10.50
2019-03-15T19:53:36.505Z,10.50
2019-03-15T19:56:03.375Z,10.50
2019-03-15T20:03:24.582Z,10.50
2019-03-15T20:20:33.033Z,10.50
2019-03-15T20:25:26.681Z,10.50
2019-03-15T20:27:53.555Z,10.50
2019-03-15T20:35:16.602Z,10.60
2019-03-15T20:37:43.386Z,10.50
2019-03-15T20:40:10.347Z,10.50
2019-03-15T20:50:03.838Z,11.40
2019-03-15T20:52:30.678Z,10.70
2019-03-15T21:19:28.985Z,10.70
2019-03-15T21:21:56.468Z,10.80
2019-03-15T21:24:23.869Z,10.80
2019-03-15T21:26:51.317Z,10.70
2019-03-15T21:29:18.078Z,10.80
2019-03-15T21:31:44.821Z,10.80
2019-03-15T21:34:11.566Z,10.80
2019-03-15T21:36:41.324Z,10.70
2019-03-15T21:46:29.610Z,10.70
2019-03-15T21:48:56.418Z,10.80
2019-03-15T21:51:23.153Z,10.80
2019-03-15T21:53:49.904Z,10.70
2019-03-15T21:56:16.941Z,10.80
2019-03-15T21:58:43.711Z,10.70
2019-03-15T22:01:10.825Z,10.70
2019-03-15T22:03:37.825Z,10.60
2019-03-15T22:06:05.023Z,10.70
2019-03-15T22:08:32.024Z,10.70
2019-03-15T22:20:46.896Z,10.40
2019-03-15T22:23:13.645Z,10.50
2019-03-15T22:28:07.554Z,12.20
2019-03-15T22:37:55.397Z,10.40
2019-03-15T22:45:16.872Z,10.50
2019-03-15T22:47:43.608Z,10.40
2019-03-15T22:50:10.902Z,10.40
2019-03-15T22:52:37.644Z,10.60
2019-03-15T22:55:04.921Z,10.60
2019-03-15T22:57:31.648Z,10.50
2019-03-15T22:59:58.492Z,10.60
2019-03-15T23:07:19.348Z,10.70
2019-03-15T23:09:46.356Z,10.70
2019-03-15T23:12:13.674Z,10.60
2019-03-15T23:17:07.820Z,10.70
2019-03-15T23:19:34.658Z,10.60
2019-03-15T23:22:01.701Z,10.60
2019-03-15T23:26:55.579Z,10.50
2019-03-15T23:29:22.573Z,10.50
2019-03-15T23:31:49.556Z,10.60
2019-03-15T23:46:31.484Z,10.50
2019-03-15T23:48:58.324Z,10.40
